Time;durP1;ratioP1;P1;durP2;ratioP2;P2;SDS_P1;SDS_P2;PMS_P1;PMS_P2;Temp;Humidity;BMP_temperature;BMP_pressure;BME280_temperature;BME280_humidity;BME280_pressure;Samples;Min_cycle;Max_cycle;Signal;HPM_P1;HPM_P2
2021/07/01 00:01:04;;;;;;;21.70;10.65;;;;;;;;;;5023794;28;20064;-62
2021/07/01 00:03:30;;;;;;;20.85;11.90;;;;;;;;;;5017548;28;20028;-59
2021/07/01 00:05:56;;;;;;;18.13;10.93;;;;;;;;;;5013491;28;20200;-59
2021/07/01 00:08:22;;;;;;;17.05;11.30;;;;;;;;;;5012750;28;20022;-58
2021/07/01 00:10:47;;;;;;;18.10;10.40;;;;;;;;;;5013026;28;20064;-59
2021/07/01 00:13:13;;;;;;;20.70;10.52;;;;;;;;;;5009832;28;20112;-59
2021/07/01 00:15:38;;;;;;;19.58;10.93;;;;;;;;;;5013525;28;20137;-59
2021/07/01 00:18:05;;;;;;;17.75;10.63;;;;;;;;;;5017866;28;20077;-59
2021/07/01 00:20:31;;;;;;;16.75;10.65;;;;;;;;;;5014331;28;20256;-59
2021/07/01 00:22:57;;;;;;;17.02;11.05;;;;;;;;;;5016801;28;20516;-59
2021/07/01 00:25:23;;;;;;;18.10;11.80;;;;;;;;;;5022772;28;20060;-59
2021/07/01 00:27:51;;;;;;;20.92;11.48;;;;;;;;;;5019464;28;20041;-59
2021/07/01 00:30:18;;;;;;;22.73;11.05;;;;;;;;;;5014059;28;20026;-59
2021/07/01 00:32:44;;;;;;;18.35;10.85;;;;;;;;;;5013295;28;20041;-61
2021/07/01 00:35:11;;;;;;;20.98;10.88;;;;;;;;;;5014627;28;20037;-61
2021/07/01 00:37:37;;;;;;;18.83;10.02;;;;;;;;;;5018582;28;20484;-61
2021/07/01 00:40:05;;;;;;;16.05;9.90;;;;;;;;;;5008433;28;22418;-61
2021/07/01 00:42:31;;;;;;;16.98;9.57;;;;;;;;;;5011507;28;20100;-60
2021/07/01 00:44:56;;;;;;;15.30;9.93;;;;;;;;;;5020623;28;20484;-61
2021/07/01 00:47:23;;;;;;;15.75;10.23;;;;;;;;;;5017490;28;20041;-61
2021/07/01 00:49:49;;;;;;;20.08;11.25;;;;;;;;;;5017100;28;20046;-61
2021/07/01 00:52:15;;;;;;;14.43;9.50;;;;;;;;;;5015176;28;20091;-61
2021/07/01 00:54:40;;;;;;;14.90;9.07;;;;;;;;;;5019662;28;20036;-61
2021/07/01 00:57:06;;;;;;;18.00;9.15;;;;;;;;;;5016927;28;20069;-62
2021/07/01 00:59:32;;;;;;;12.50;9.13;;;;;;;;;;5014085;28;20087;-61
2021/07/01 01:01:57;;;;;;;15.63;9.15;;;;;;;;;;5015377;28;20053;-61
2021/07/01 01:04:23;;;;;;;14.93;9.93;;;;;;;;;;5011525;28;20029;-61
2021/07/01 01:06:48;;;;;;;13.98;9.57;;;;;;;;;;5017729;28;20575;-62
2021/07/01 01:09:14;;;;;;;16.50;9.30;;;;;;;;;;5016591;28;20029;-61
2021/07/01 01:11:40;;;;;;;14.45;8.90;;;;;;;;;;5014508;28;20041;-63
2021/07/01 01:14:05;;;;;;;13.95;9.55;;;;;;;;;;5021734;28;20489;-61
2021/07/01 01:16:31;;;;;;;14.80;9.60;;;;;;;;;;5015082;28;20122;-61
2021/07/01 01:18:57;;;;;;;15.07;9.50;;;;;;;;;;5017585;28;20112;-61
2021/07/01 01:21:24;;;;;;;16.88;9.65;;;;;;;;;;5012517;28;20042;-61
2021/07/01 01:23:50;;;;;;;16.50;9.40;;;;;;;;;;5013373;28;20045;-60
2021/07/01 01:26:16;;;;;;;12.30;8.95;;;;;;;;;;5020456;28;20026;-61
2021/07/01 01:28:42;;;;;;;14.85;9.90;;;;;;;;;;5018621;28;20033;-61
2021/07/01 01:31:08;;;;;;;17.00;9.60;;;;;;;;;;5018658;28;20203;-60
2021/07/01 01:33:33;;;;;;;15.02;8.98;;;;;;;;;;5022215;28;20130;-61
2021/07/01 01:35:59;;;;;;;16.98;10.05;;;;;;;;;;4996287;28;20061;-61
2021/07/01 01:38:24;;;;;;;13.95;9.43;;;;;;;;;;5014938;28;20028;-61
2021/07/01 01:40:50;;;;;;;13.23;9.25;;;;;;;;;;5017265;28;20057;-61
2021/07/01 01:43:17;;;;;;;17.20;10.20;;;;;;;;;;5013280;28;20057;-61
2021/07/01 01:45:44;;;;;;;16.42;9.77;;;;;;;;;;5019881;28;20036;-61
2021/07/01 01:48:10;;;;;;;21.08;10.57;;;;;;;;;;5016482;28;20038;-61
2021/07/01 01:50:35;;;;;;;13.73;8.82;;;;;;;;;;5010741;28;20029;-61
2021/07/01 01:53:02;;;;;;;19.70;9.82;;;;;;;;;;5014945;28;20033;-62
2021/07/01 01:55:28;;;;;;;17.77;9.77;;;;;;;;;;5013168;28;20056;-62
2021/07/01 01:57:53;;;;;;;17.77;10.23;;;;;;;;;;5014578;28;20037;-60
2021/07/01 02:00:21;;;;;;;15.65;9.32;;;;;;;;;;5019075;28;20030;-61
2021/07/01 02:02:48;;;;;;;20.00;10.38;;;;;;;;;;5009791;28;20029;-62
2021/07/01 02:05:14;;;;;;;15.25;9.55;;;;;;;;;;5012793;28;20466;-62
2021/07/01 02:07:40;;;;;;;17.38;9.38;;;;;;;;;;5012284;28;20026;-62
2021/07/01 02:10:09;;;;;;;16.45;10.68;;;;;;;;;;5013155;28;20021;-62
2021/07/01 02:12:35;;;;;;;15.85;9.43;;;;;;;;;;5015675;28;20036;-62
2021/07/01 02:15:02;;;;;;;14.70;9.48;;;;;;;;;;5015824;28;20303;-61
2021/07/01 02:17:27;;;;;;;15.32;9.70;;;;;;;;;;5016478;28;20106;-60
2021/07/01 02:19:52;;;;;;;15.30;10.23;;;;;;;;;;5019843;28;20045;-61
2021/07/01 02:22:18;;;;;;;15.95;9.63;;;;;;;;;;5015366;28;20124;-62
2021/07/01 02:24:44;;;;;;;12.88;9.00;;;;;;;;;;5003918;28;20423;-62
2021/07/01 02:27:10;;;;;;;16.30;9.57;;;;;;;;;;5013982;28;20083;-62
2021/07/01 02:29:36;;;;;;;15.20;9.70;;;;;;;;;;5019038;28;20200;-62
2021/07/01 02:32:02;;;;;;;13.45;9.20;;;;;;;;;;5014019;28;20506;-62
2021/07/01 02:34:28;;;;;;;13.32;8.85;;;;;;;;;;5018586;28;20025;-62
2021/07/01 02:36:54;;;;;;;14.45;8.85;;;;;;;;;;5014967;28;20095;-62
2021/07/01 02:39:19;;;;;;;16.88;8.70;;;;;;;;;;5014743;28;20272;-62
2021/07/01 02:41:44;;;;;;;11.20;8.48;;;;;;;;;;5016399;28;20508;-62
2021/07/01 02:44:10;;;;;;;11.40;8.10;;;;;;;;;;5016559;28;20037;-63
2021/07/01 02:46:36;;;;;;;12.50;7.82;;;;;;;;;;5016593;28;20025;-61
2021/07/01 02:49:02;;;;;;;15.60;9.38;;;;;;;;;;5020890;28;20029;-59
2021/07/01 02:51:27;;;;;;;12.85;8.63;;;;;;;;;;5021983;28;20025;-61
2021/07/01 02:53:53;;;;;;;14.73;9.57;;;;;;;;;;5014118;28;20044;-61
2021/07/01 02:56:21;;;;;;;13.10;8.23;;;;;;;;;;5017259;28;20048;-61
2021/07/01 02:58:46;;;;;;;13.20;8.48;;;;;;;;;;5018205;28;22473;-61
2021/07/01 03:01:12;;;;;;;14.30;8.88;;;;;;;;;;5014068;28;20029;-61
2021/07/01 03:03:37;;;;;;;18.65;9.30;;;;;;;;;;5012322;28;20088;-61
2021/07/01 03:06:02;;;;;;;15.48;9.27;;;;;;;;;;5017404;28;20157;-61
2021/07/01 03:08:28;;;;;;;17.63;9.75;;;;;;;;;;5019866;28;20033;-61
2021/07/01 03:10:53;;;;;;;18.55;11.45;;;;;;;;;;5016845;28;20111;-61
2021/07/01 03:13:19;;;;;;;21.23;12.85;;;;;;;;;;5014976;28;20045;-62
2021/07/01 03:15:44;;;;;;;24.45;13.10;;;;;;;;;;5012419;28;20026;-62
2021/07/01 03:18:10;;;;;;;18.40;12.65;;;;;;;;;;5016522;28;20033;-63
2021/07/01 03:20:35;;;;;;;22.42;13.57;;;;;;;;;;5015624;28;20034;-62
2021/07/01 03:23:02;;;;;;;25.40;14.48;;;;;;;;;;5013779;28;20428;-63
2021/07/01 03:25:28;;;;;;;27.73;14.20;;;;;;;;;;5013223;28;20041;-62
2021/07/01 03:27:54;;;;;;;27.33;16.40;;;;;;;;;;5014063;28;20041;-62
2021/07/01 03:30:19;;;;;;;25.17;15.90;;;;;;;;;;5013715;28;20060;-62
2021/07/01 03:32:45;;;;;;;28.85;16.00;;;;;;;;;;5018044;28;20480;-62
2021/07/01 03:35:11;;;;;;;32.13;16.02;;;;;;;;;;5009168;28;20046;-62
2021/07/01 03:37:36;;;;;;;40.40;17.17;;;;;;;;;;5018893;28;20419;-63
2021/07/01 03:40:03;;;;;;;35.17;16.35;;;;;;;;;;5016017;28;20087;-62
2021/07/01 03:42:29;;;;;;;32.88;15.70;;;;;;;;;;5013716;28;20021;-62
2021/07/01 03:44:55;;;;;;;30.20;16.45;;;;;;;;;;5009089;28;20030;-62
2021/07/01 03:47:20;;;;;;;30.00;15.77;;;;;;;;;;5019313;28;20025;-62
2021/07/01 03:49:46;;;;;;;31.40;16.33;;;;;;;;;;5012937;28;20065;-62
2021/07/01 03:52:12;;;;;;;33.83;15.82;;;;;;;;;;5012924;28;20116;-63
2021/07/01 03:54:37;;;;;;;39.10;16.90;;;;;;;;;;5015741;28;20057;-62
2021/07/01 03:57:03;;;;;;;35.50;15.55;;;;;;;;;;5021520;28;20131;-62
2021/07/01 03:59:29;;;;;;;52.47;17.08;;;;;;;;;;5015380;28;20041;-63
2021/07/01 04:01:54;;;;;;;36.80;16.40;;;;;;;;;;5019181;28;22148;-62
2021/07/01 04:04:20;;;;;;;28.30;14.57;;;;;;;;;;5020743;28;20292;-62
2021/07/01 04:06:46;;;;;;;35.55;15.25;;;;;;;;;;5011295;28;20034;-63
2021/07/01 04:09:12;;;;;;;52.60;15.70;;;;;;;;;;5018339;28;20108;-63
2021/07/01 04:11:37;;;;;;;37.78;15.00;;;;;;;;;;5017700;28;20108;-62
2021/07/01 04:14:03;;;;;;;35.25;15.05;;;;;;;;;;5015196;28;20642;-63
2021/07/01 04:16:30;;;;;;;35.53;14.73;;;;;;;;;;5029425;28;20033;-63
2021/07/01 04:18:55;;;;;;;40.22;15.75;;;;;;;;;;5015459;28;20018;-63
2021/07/01 04:21:26;;;;;;;29.80;14.88;;;;;;;;;;5009692;28;20437;-63
2021/07/01 04:23:52;;;;;;;35.85;13.40;;;;;;;;;;5016226;28;20076;-63
2021/07/01 04:26:17;;;;;;;42.25;14.93;;;;;;;;;;5011867;28;20041;-63
2021/07/01 04:28:43;;;;;;;37.08;15.13;;;;;;;;;;5014346;28;20128;-62
2021/07/01 04:31:08;;;;;;;32.97;13.48;;;;;;;;;;5017577;28;20034;-63
2021/07/01 04:33:34;;;;;;;38.80;13.38;;;;;;;;;;5013664;28;20388;-63
2021/07/01 04:36:00;;;;;;;31.60;13.30;;;;;;;;;;5018063;28;20508;-63
2021/07/01 04:38:25;;;;;;;33.55;13.88;;;;;;;;;;5012931;28;20029;-62
2021/07/01 04:40:51;;;;;;;36.65;13.93;;;;;;;;;;5017241;28;20030;-62
2021/07/01 04:43:16;;;;;;;30.42;13.15;;;;;;;;;;5018666;28;20037;-63
2021/07/01 04:45:42;;;;;;;45.17;13.55;;;;;;;;;;5019016;28;20115;-63
2021/07/01 04:48:08;;;;;;;31.33;13.73;;;;;;;;;;5010748;28;20065;-63
2021/07/01 04:50:33;;;;;;;29.77;13.55;;;;;;;;;;5013956;28;20038;-63
2021/07/01 04:52:59;;;;;;;40.67;13.48;;;;;;;;;;5019192;28;20034;-62
2021/07/01 04:55:24;;;;;;;28.38;12.75;;;;;;;;;;5012676;28;20416;-63
2021/07/01 04:57:50;;;;;;;33.35;13.50;;;;;;;;;;5011995;28;20080;-63
2021/07/01 05:00:16;;;;;;;37.53;13.35;;;;;;;;;;5018547;28;20099;-63
2021/07/01 05:02:41;;;;;;;42.35;12.70;;;;;;;;;;5016051;28;20025;-63
2021/07/01 05:05:07;;;;;;;42.88;13.63;;;;;;;;;;5016835;28;20028;-63
2021/07/01 05:07:33;;;;;;;31.60;14.05;;;;;;;;;;5016991;28;20064;-63
2021/07/01 05:09:58;;;;;;;35.05;12.52;;;;;;;;;;5019815;28;20065;-63
2021/07/01 05:12:24;;;;;;;33.65;12.90;;;;;;;;;;5011532;28;20037;-63
2021/07/01 05:14:49;;;;;;;31.60;13.32;;;;;;;;;;5014975;28;20069;-63
2021/07/01 05:17:15;;;;;;;47.85;13.32;;;;;;;;;;5019580;28;20125;-63
2021/07/01 05:19:40;;;;;;;34.40;13.15;;;;;;;;;;5014519;28;20600;-63
2021/07/01 05:22:05;;;;;;;28.75;13.20;;;;;;;;;;5014495;28;20139;-63
2021/07/01 05:24:31;;;;;;;37.80;13.30;;;;;;;;;;5013484;28;20025;-63
2021/07/01 05:26:57;;;;;;;40.08;13.80;;;;;;;;;;5014624;28;20520;-63
2021/07/01 05:29:22;;;;;;;42.05;12.77;;;;;;;;;;5009739;28;20041;-62
2021/07/01 05:31:48;;;;;;;30.23;13.05;;;;;;;;;;5011921;28;20037;-63
2021/07/01 05:34:13;;;;;;;30.10;12.95;;;;;;;;;;5015981;28;20458;-63
2021/07/01 05:36:39;;;;;;;28.48;12.60;;;;;;;;;;5017211;28;20033;-63
2021/07/01 05:39:06;;;;;;;33.10;13.15;;;;;;;;;;5018471;28;20407;-63
2021/07/01 05:41:32;;;;;;;38.38;13.40;;;;;;;;;;5013007;28;20025;-62
2021/07/01 05:44:00;;;;;;;31.77;13.23;;;;;;;;;;5017049;28;20025;-62
2021/07/01 05:46:26;;;;;;;34.20;13.70;;;;;;;;;;5010458;28;20043;-62
2021/07/01 05:48:51;;;;;;;35.40;13.98;;;;;;;;;;5017334;28;20116;-62
2021/07/01 05:51:18;;;;;;;36.80;14.40;;;;;;;;;;5015615;28;20021;-62
2021/07/01 05:53:54;;;;;;;44.60;13.45;;;;;;;;;;5018597;28;20290;-62
2021/07/01 05:56:20;;;;;;;38.03;12.23;;;;;;;;;;5017549;28;20303;-63
2021/07/01 05:58:45;;;;;;;30.13;12.18;;;;;;;;;;5017480;28;20308;-62
2021/07/01 06:01:10;;;;;;;37.78;13.82;;;;;;;;;;5017497;28;20053;-62
2021/07/01 06:03:36;;;;;;;31.23;13.38;;;;;;;;;;5014929;28;20504;-62
2021/07/01 06:06:10;;;;;;;54.22;13.30;;;;;;;;;;5017802;28;20107;-63
2021/07/01 06:08:36;;;;;;;27.40;12.80;;;;;;;;;;5016043;28;20022;-63
2021/07/01 06:11:06;;;;;;;39.10;13.20;;;;;;;;;;5022583;28;20043;-62
2021/07/01 06:13:36;;;;;;;25.83;12.75;;;;;;;;;;5015570;28;20085;-62
2021/07/01 06:16:01;;;;;;;35.05;13.27;;;;;;;;;;5023104;28;20040;-62
2021/07/01 06:18:27;;;;;;;31.23;12.82;;;;;;;;;;5017670;28;20037;-62
2021/07/01 06:20:53;;;;;;;30.70;13.40;;;;;;;;;;5018937;28;20076;-62
2021/07/01 06:23:18;;;;;;;27.08;13.02;;;;;;;;;;5022361;28;20021;-62
2021/07/01 06:25:48;;;;;;;30.00;12.65;;;;;;;;;;5020008;28;20041;-62
2021/07/01 06:28:14;;;;;;;29.88;12.35;;;;;;;;;;5017142;28;20026;-62
2021/07/01 06:30:41;;;;;;;29.50;12.55;;;;;;;;;;5022039;28;20112;-62
2021/07/01 06:33:07;;;;;;;31.70;13.38;;;;;;;;;;5015757;28;20034;-62
2021/07/01 06:35:33;;;;;;;36.85;13.75;;;;;;;;;;5016727;28;20022;-62
2021/07/01 06:38:07;;;;;;;24.15;12.60;;;;;;;;;;5017407;28;20447;-61
2021/07/01 06:40:33;;;;;;;23.45;11.30;;;;;;;;;;5018943;28;20021;-62
2021/07/01 06:43:01;;;;;;;23.52;12.93;;;;;;;;;;5014395;28;20428;-59
2021/07/01 06:45:27;;;;;;;23.02;12.13;;;;;;;;;;5020970;28;20053;-59
2021/07/01 06:47:54;;;;;;;19.95;11.00;;;;;;;;;;5015649;28;20064;-60
2021/07/01 06:50:29;;;;;;;20.33;11.10;;;;;;;;;;5021782;28;20501;-60
2021/07/01 06:52:56;;;;;;;18.95;11.27;;;;;;;;;;5015930;28;20068;-59
2021/07/01 06:55:22;;;;;;;22.10;12.35;;;;;;;;;;5018462;28;20540;-60
2021/07/01 06:57:48;;;;;;;19.30;11.32;;;;;;;;;;5014654;28;20483;-60
2021/07/01 07:00:17;;;;;;;20.25;10.93;;;;;;;;;;5012305;28;20455;-60
2021/07/01 07:02:43;;;;;;;21.63;11.30;;;;;;;;;;5021860;28;20036;-60
2021/07/01 07:05:20;;;;;;;18.75;10.10;;;;;;;;;;5015105;28;20072;-60
2021/07/01 07:07:47;;;;;;;15.95;9.57;;;;;;;;;;5018717;28;20025;-60
2021/07/01 07:10:16;;;;;;;18.63;10.23;;;;;;;;;;5018694;28;20075;-60
2021/07/01 07:12:43;;;;;;;17.77;10.23;;;;;;;;;;5016769;28;20025;-62
2021/07/01 07:15:12;;;;;;;23.40;10.65;;;;;;;;;;5012115;28;20833;-63
2021/07/01 07:17:39;;;;;;;18.10;9.80;;;;;;;;;;5018728;28;20025;-62
2021/07/01 07:20:07;;;;;;;18.23;10.35;;;;;;;;;;5017419;28;20042;-62
2021/07/01 07:22:40;;;;;;;19.85;10.77;;;;;;;;;;5014720;28;20037;-63
2021/07/01 07:25:08;;;;;;;17.48;10.23;;;;;;;;;;5014005;28;20038;-63
2021/07/01 07:27:37;;;;;;;17.85;10.00;;;;;;;;;;5016593;28;20041;-63
2021/07/01 07:30:03;;;;;;;20.80;10.57;;;;;;;;;;5017330;28;20034;-62
2021/07/01 07:32:30;;;;;;;22.33;10.25;;;;;;;;;;5010118;28;20132;-63
2021/07/01 07:34:56;;;;;;;16.25;9.82;;;;;;;;;;5012551;28;20451;-63
2021/07/01 07:37:22;;;;;;;17.33;10.52;;;;;;;;;;5015100;28;20018;-63
2021/07/01 07:39:49;;;;;;;17.63;10.07;;;;;;;;;;5017753;28;20396;-63
2021/07/01 07:42:15;;;;;;;21.23;10.98;;;;;;;;;;5019586;28;20608;-63
2021/07/01 07:44:42;;;;;;;18.30;10.63;;;;;;;;;;5019965;28;20439;-63
2021/07/01 07:47:12;;;;;;;18.55;9.63;;;;;;;;;;5011755;28;20042;-63
2021/07/01 07:49:38;;;;;;;19.95;9.90;;;;;;;;;;5013696;28;20384;-64
2021/07/01 07:52:08;;;;;;;17.45;9.90;;;;;;;;;;5013498;28;20037;-63
2021/07/01 07:54:42;;;;;;;15.20;9.50;;;;;;;;;;5014859;28;20451;-63
2021/07/01 07:57:08;;;;;;;22.00;9.77;;;;;;;;;;5016840;28;20024;-63
2021/07/01 07:59:35;;;;;;;16.95;9.55;;;;;;;;;;5015850;28;20026;-63
2021/07/01 08:02:05;;;;;;;21.05;10.63;;;;;;;;;;5017404;28;20030;-63
2021/07/01 08:04:34;;;;;;;25.67;11.35;;;;;;;;;;5014409;28;20125;-63
2021/07/01 08:07:00;;;;;;;17.52;10.00;;;;;;;;;;5017303;28;20029;-63
2021/07/01 08:09:28;;;;;;;15.68;10.00;;;;;;;;;;5014422;28;20056;-63
2021/07/01 08:11:55;;;;;;;21.50;10.57;;;;;;;;;;5017318;28;20439;-63
2021/07/01 08:14:23;;;;;;;17.85;10.45;;;;;;;;;;5013277;28;20025;-63
2021/07/01 08:16:49;;;;;;;19.00;10.30;;;;;;;;;;5015719;28;20496;-63
2021/07/01 08:19:14;;;;;;;15.68;10.50;;;;;;;;;;5018868;28;20056;-63
2021/07/01 08:21:40;;;;;;;15.88;10.73;;;;;;;;;;5019820;28;20532;-63
2021/07/01 08:24:07;;;;;;;22.50;11.30;;;;;;;;;;5021557;28;20208;-64
2021/07/01 08:26:33;;;;;;;19.90;10.65;;;;;;;;;;5023508;28;20037;-64
2021/07/01 08:29:00;;;;;;;16.85;10.60;;;;;;;;;;5019457;28;20049;-64
2021/07/01 08:31:28;;;;;;;19.98;11.38;;;;;;;;;;5013620;28;20050;-64
2021/07/01 08:33:55;;;;;;;18.05;11.13;;;;;;;;;;5021052;28;20283;-63
2021/07/01 08:36:24;;;;;;;17.08;10.85;;;;;;;;;;5011584;28;20061;-63
2021/07/01 08:38:54;;;;;;;20.83;12.45;;;;;;;;;;5018398;28;20144;-64
2021/07/01 08:41:25;;;;;;;22.25;10.98;;;;;;;;;;5019167;28;20116;-64
2021/07/01 08:43:57;;;;;;;17.25;11.43;;;;;;;;;;5018229;28;20037;-60
2021/07/01 08:46:35;;;;;;;19.65;11.80;;;;;;;;;;5016866;28;20029;-61
2021/07/01 08:49:08;;;;;;;16.70;11.07;;;;;;;;;;5014901;28;20401;-60
2021/07/01 08:51:43;;;;;;;18.88;11.32;;;;;;;;;;5016626;28;20033;-60
2021/07/01 08:54:31;;;;;;;21.15;11.52;;;;;;;;;;5014019;28;20045;-61
2021/07/01 08:56:58;;;;;;;25.85;12.00;;;;;;;;;;5013040;28;20033;-61
2021/07/01 08:59:25;;;;;;;20.75;12.13;;;;;;;;;;5015327;28;20029;-61
2021/07/01 09:01:55;;;;;;;20.63;11.55;;;;;;;;;;5018599;28;20120;-60
2021/07/01 09:04:23;;;;;;;22.45;12.00;;;;;;;;;;5018445;28;20417;-61
2021/07/01 09:06:58;;;;;;;20.35;12.23;;;;;;;;;;5013961;28;20456;-61
2021/07/01 09:09:29;;;;;;;22.15;12.25;;;;;;;;;;5017802;28;20252;-61
2021/07/01 09:11:58;;;;;;;23.48;12.65;;;;;;;;;;5019193;28;20500;-61
2021/07/01 09:14:27;;;;;;;16.40;11.02;;;;;;;;;;5016054;28;20375;-61
2021/07/01 09:16:54;;;;;;;16.83;10.60;;;;;;;;;;5018637;28;20029;-61
2021/07/01 09:19:23;;;;;;;20.95;11.57;;;;;;;;;;5017220;28;20071;-61
2021/07/01 09:21:51;;;;;;;21.50;11.73;;;;;;;;;;5015883;28;20042;-61
2021/07/01 09:24:17;;;;;;;20.90;11.68;;;;;;;;;;5012717;28;20328;-60
2021/07/01 09:26:47;;;;;;;23.17;11.85;;;;;;;;;;5013151;28;20029;-60
2021/07/01 09:29:12;;;;;;;20.67;11.75;;;;;;;;;;5012879;28;20026;-61
2021/07/01 09:31:40;;;;;;;18.15;10.98;;;;;;;;;;5013650;28;20045;-60
2021/07/01 09:34:06;;;;;;;16.52;11.15;;;;;;;;;;5020086;28;20033;-60
2021/07/01 09:36:33;;;;;;;26.08;12.98;;;;;;;;;;5013819;28;20041;-60
2021/07/01 09:39:01;;;;;;;22.38;12.52;;;;;;;;;;5014388;28;20483;-60
2021/07/01 09:41:26;;;;;;;30.45;11.75;;;;;;;;;;5014036;28;20025;-60
2021/07/01 09:43:52;;;;;;;17.45;10.80;;;;;;;;;;5017037;28;20045;-63
2021/07/01 09:46:23;;;;;;;23.25;11.07;;;;;;;;;;5016134;28;20029;-63
2021/07/01 09:48:52;;;;;;;19.65;10.98;;;;;;;;;;5015282;28;20034;-63
2021/07/01 09:51:18;;;;;;;19.05;12.57;;;;;;;;;;5016148;28;20026;-63
2021/07/01 09:53:51;;;;;;;18.00;11.52;;;;;;;;;;5012406;28;20070;-64
2021/07/01 09:56:36;;;;;;;18.92;10.80;;;;;;;;;;5014034;28;20018;-63
2021/07/01 09:59:03;;;;;;;20.83;11.20;;;;;;;;;;5014919;28;20025;-64
2021/07/01 10:01:41;;;;;;;25.70;11.38;;;;;;;;;;5016107;28;20018;-64
2021/07/01 10:04:08;;;;;;;15.60;10.73;;;;;;;;;;5017051;28;20025;-64
2021/07/01 10:06:34;;;;;;;18.17;10.57;;;;;;;;;;5013076;28;20034;-64
2021/07/01 10:09:00;;;;;;;19.15;11.13;;;;;;;;;;5017108;28;20075;-64
2021/07/01 10:11:43;;;;;;;16.98;10.18;;;;;;;;;;5015240;28;20436;-64
2021/07/01 10:14:15;;;;;;;17.40;10.57;;;;;;;;;;5011462;28;20393;-63
2021/07/01 10:16:41;;;;;;;17.88;10.73;;;;;;;;;;5021570;28;20557;-63
2021/07/01 10:19:08;;;;;;;18.20;10.13;;;;;;;;;;5009214;28;20101;-63
2021/07/01 10:21:35;;;;;;;18.60;11.27;;;;;;;;;;5013115;28;20080;-64
2021/07/01 10:24:08;;;;;;;18.63;10.73;;;;;;;;;;5016848;28;20049;-64
2021/07/01 10:26:49;;;;;;;18.00;11.32;;;;;;;;;;5015865;28;20028;-63
2021/07/01 10:29:19;;;;;;;18.50;11.33;;;;;;;;;;5010253;28;20045;-64
2021/07/01 10:32:15;;;;;;;20.70;11.38;;;;;;;;;;5019008;28;20400;-62
2021/07/01 10:34:48;;;;;;;19.85;11.18;;;;;;;;;;5012434;28;20499;-64
2021/07/01 10:37:21;;;;;;;18.80;11.98;;;;;;;;;;5011815;28;20033;-64
2021/07/01 10:39:48;;;;;;;20.55;13.10;;;;;;;;;;5014993;28;20049;-64
2021/07/01 10:42:15;;;;;;;22.15;11.75;;;;;;;;;;5020048;28;20034;-64
2021/07/01 10:44:41;;;;;;;16.42;10.95;;;;;;;;;;5022054;28;20542;-63
2021/07/01 10:47:42;;;;;;;17.13;10.75;;;;;;;;;;5019213;28;20034;-64
2021/07/01 10:50:23;;;;;;;21.35;12.25;;;;;;;;;;5013563;28;20570;-64
2021/07/01 10:52:49;;;;;;;20.35;12.48;;;;;;;;;;5015072;28;20057;-64
2021/07/01 10:55:16;;;;;;;18.27;11.13;;;;;;;;;;5024467;28;20042;-63
2021/07/01 10:57:56;;;;;;;21.83;12.65;;;;;;;;;;5018380;28;20021;-64
2021/07/01 11:00:42;;;;;;;18.02;11.27;;;;;;;;;;5019738;28;20123;-63
2021/07/01 11:03:22;;;;;;;23.45;11.93;;;;;;;;;;5017762;28;20021;-63
2021/07/01 11:05:48;;;;;;;21.23;11.20;;;;;;;;;;5012624;28;20622;-63
2021/07/01 11:08:29;;;;;;;29.13;11.93;;;;;;;;;;5021462;28;20128;-63
2021/07/01 11:10:56;;;;;;;17.73;11.40;;;;;;;;;;5015043;28;20475;-63
2021/07/01 11:13:24;;;;;;;23.73;12.70;;;;;;;;;;5015838;28;20049;-63
2021/07/01 11:16:08;;;;;;;20.67;12.25;;;;;;;;;;5015908;28;20408;-63
2021/07/01 11:18:42;;;;;;;20.20;12.60;;;;;;;;;;5018449;28;20400;-63
2021/07/01 11:21:12;;;;;;;23.52;12.95;;;;;;;;;;5013632;28;20048;-63
2021/07/01 11:23:38;;;;;;;20.98;12.38;;;;;;;;;;5013612;28;20437;-63
2021/07/01 11:26:27;;;;;;;21.55;12.20;;;;;;;;;;5013347;28;20041;-63
2021/07/01 11:28:54;;;;;;;23.80;11.68;;;;;;;;;;5019167;28;20021;-63
2021/07/01 11:31:33;;;;;;;20.83;11.68;;;;;;;;;;5011451;28;21564;-62
2021/07/01 11:34:00;;;;;;;20.55;11.98;;;;;;;;;;5021297;28;20375;-63
2021/07/01 11:36:26;;;;;;;22.08;12.30;;;;;;;;;;5018371;28;20022;-64
2021/07/01 11:39:04;;;;;;;22.38;12.80;;;;;;;;;;5023035;28;20396;-64
2021/07/01 11:41:31;;;;;;;22.13;12.30;;;;;;;;;;5019012;28;20037;-63
2021/07/01 11:43:58;;;;;;;24.48;13.23;;;;;;;;;;5024477;28;20392;-64
2021/07/01 11:46:23;;;;;;;23.45;13.25;;;;;;;;;;5012048;28;20038;-63
2021/07/01 11:48:52;;;;;;;24.30;13.40;;;;;;;;;;5012035;28;20500;-63
2021/07/01 11:51:20;;;;;;;23.80;12.02;;;;;;;;;;5015322;28;20432;-62
2021/07/01 11:53:48;;;;;;;24.17;13.35;;;;;;;;;;5018657;28;20021;-63
2021/07/01 11:56:14;;;;;;;19.60;12.02;;;;;;;;;;5018802;28;20038;-62
2021/07/01 11:58:42;;;;;;;23.25;12.57;;;;;;;;;;5019401;28;20511;-64
2021/07/01 12:01:08;;;;;;;23.23;13.43;;;;;;;;;;5018714;28;20091;-64
2021/07/01 12:03:35;;;;;;;25.33;13.77;;;;;;;;;;5014999;28;20449;-65
2021/07/01 12:06:01;;;;;;;23.77;13.50;;;;;;;;;;5018233;28;20029;-63
2021/07/01 12:08:27;;;;;;;23.40;14.43;;;;;;;;;;5027502;28;20040;-63
2021/07/01 12:11:00;;;;;;;23.98;13.68;;;;;;;;;;5018081;28;20029;-63
2021/07/01 12:13:38;;;;;;;22.73;12.38;;;;;;;;;;5012931;28;20034;-63
2021/07/01 12:16:04;;;;;;;25.88;13.38;;;;;;;;;;5011453;28;20116;-62
2021/07/01 12:18:44;;;;;;;27.02;13.00;;;;;;;;;;5022012;28;20033;-63
2021/07/01 12:21:17;;;;;;;22.33;12.88;;;;;;;;;;5017530;28;20517;-63
2021/07/01 12:24:04;;;;;;;26.33;14.85;;;;;;;;;;5012694;28;20500;-63
2021/07/01 12:26:43;;;;;;;35.13;14.48;;;;;;;;;;5014727;28;20189;-62
2021/07/01 12:29:20;;;;;;;29.92;14.10;;;;;;;;;;5013059;28;20541;-63
2021/07/01 12:31:47;;;;;;;22.80;13.75;;;;;;;;;;5022381;28;20075;-63
2021/07/01 12:34:20;;;;;;;28.80;13.93;;;;;;;;;;5018275;28;20029;-63
2021/07/01 12:36:57;;;;;;;28.50;13.32;;;;;;;;;;5014065;28;20030;-64
2021/07/01 12:39:25;;;;;;;23.58;13.32;;;;;;;;;;5011533;28;20037;-63
2021/07/01 12:41:52;;;;;;;23.30;12.50;;;;;;;;;;5017035;28;20021;-64
2021/07/01 12:44:34;;;;;;;24.52;13.18;;;;;;;;;;5014865;28;20052;-64
2021/07/01 12:47:04;;;;;;;26.90;12.57;;;;;;;;;;5013107;28;20095;-62
2021/07/01 12:49:32;;;;;;;25.85;12.93;;;;;;;;;;5016846;28;20113;-63
2021/07/01 12:52:00;;;;;;;25.20;12.52;;;;;;;;;;5017132;28;20076;-63
2021/07/01 12:54:29;;;;;;;22.23;12.60;;;;;;;;;;5016549;28;20024;-63
2021/07/01 12:56:54;;;;;;;23.23;12.90;;;;;;;;;;5018872;28;20409;-63
2021/07/01 12:59:20;;;;;;;25.75;12.32;;;;;;;;;;5016248;28;20053;-63
2021/07/01 13:01:46;;;;;;;21.40;11.25;;;;;;;;;;5017049;28;20113;-63
2021/07/01 13:04:12;;;;;;;23.02;12.02;;;;;;;;;;5011339;28;20124;-63
2021/07/01 13:06:41;;;;;;;21.45;11.88;;;;;;;;;;5013234;28;20030;-63
2021/07/01 13:09:07;;;;;;;23.63;11.25;;;;;;;;;;5021361;28;20057;-63
2021/07/01 13:11:43;;;;;;;20.63;11.23;;;;;;;;;;5018525;28;20443;-63
2021/07/01 13:14:08;;;;;;;24.15;11.90;;;;;;;;;;5021218;28;20504;-63
2021/07/01 13:16:34;;;;;;;20.60;10.18;;;;;;;;;;5018376;28;20046;-63
2021/07/01 13:19:22;;;;;;;18.73;10.68;;;;;;;;;;5016014;28;20029;-63
2021/07/01 13:21:53;;;;;;;19.83;9.88;;;;;;;;;;5014496;28;20042;-63
2021/07/01 13:24:19;;;;;;;21.10;11.82;;;;;;;;;;5014071;28;20029;-63
2021/07/01 13:26:51;;;;;;;18.40;10.13;;;;;;;;;;5019276;28;20489;-63
2021/07/01 13:29:37;;;;;;;17.27;10.43;;;;;;;;;;5016048;28;20033;-63
2021/07/01 13:32:08;;;;;;;23.45;11.43;;;;;;;;;;5014037;28;21574;-63
2021/07/01 13:34:34;;;;;;;18.23;11.18;;;;;;;;;;5012111;28;20064;-63
2021/07/01 13:37:22;;;;;;;18.98;10.07;;;;;;;;;;5011789;28;20065;-63
2021/07/01 13:39:49;;;;;;;16.77;9.27;;;;;;;;;;5012754;28;20034;-63
2021/07/01 13:42:34;;;;;;;16.58;10.30;;;;;;;;;;5013478;28;20033;-63
2021/07/01 13:45:02;;;;;;;20.08;10.98;;;;;;;;;;5016329;28;20046;-63
2021/07/01 13:47:28;;;;;;;15.57;10.85;;;;;;;;;;5013868;28;20029;-62
2021/07/01 13:49:54;;;;;;;14.10;9.88;;;;;;;;;;5017096;28;20112;-62
2021/07/01 13:52:20;;;;;;;15.68;10.43;;;;;;;;;;5016147;28;20092;-62
2021/07/01 13:54:47;;;;;;;16.60;10.73;;;;;;;;;;5021785;28;20088;-62
2021/07/01 13:57:12;;;;;;;16.58;11.07;;;;;;;;;;5017759;28;20435;-63
2021/07/01 13:59:38;;;;;;;19.45;10.85;;;;;;;;;;5014106;28;20080;-63
2021/07/01 14:02:20;;;;;;;15.63;9.85;;;;;;;;;;5014122;28;20083;-63
2021/07/01 14:04:45;;;;;;;16.23;10.45;;;;;;;;;;5014560;28;20077;-63
2021/07/01 14:07:11;;;;;;;17.08;10.18;;;;;;;;;;5021725;28;20056;-63
2021/07/01 14:09:37;;;;;;;16.77;10.25;;;;;;;;;;5018000;28;20503;-63
2021/07/01 14:12:03;;;;;;;15.10;10.32;;;;;;;;;;5012242;28;20261;-63
2021/07/01 14:14:32;;;;;;;15.25;10.23;;;;;;;;;;5012936;28;20041;-63
2021/07/01 14:16:59;;;;;;;19.30;11.35;;;;;;;;;;5020241;28;20029;-62
2021/07/01 14:19:26;;;;;;;15.82;10.70;;;;;;;;;;5011435;28;20034;-63
2021/07/01 14:21:52;;;;;;;17.42;10.40;;;;;;;;;;5021050;28;20058;-63
2021/07/01 14:24:23;;;;;;;15.55;10.77;;;;;;;;;;5021989;28;20107;-64